Time;durP1;ratioP1;P1;durP2;ratioP2;P2;SDS_P1;SDS_P2;PMS_P1;PMS_P2;Temp;Humidity;BMP_temperature;BMP_pressure;BME280_temperature;BME280_humidity;BME280_pressure;Samples;Min_cycle;Max_cycle;Signal;HPM_P1;HPM_P2
2023/03/29 00:02:19;;;;;;;2.93;2.40;;;;;;;-143.84;63.33;45233.78;5072128;28;20506;-68
2023/03/29 00:04:46;;;;;;;2.23;2.03;;;;;;;-143.84;63.17;45218.53;5071668;28;20445;-68
2023/03/29 00:07:14;;;;;;;3.10;2.37;;;;;;;-143.84;63.12;45216.63;5071780;28;20441;-68
2023/03/29 00:09:41;;;;;;;4.93;2.43;;;;;;;-143.84;63.04;45228.06;5071374;28;20993;-68
2023/03/29 00:12:09;;;;;;;2.90;2.10;;;;;;;-143.84;62.92;45189.97;5071456;28;20432;-68
2023/03/29 00:14:37;;;;;;;2.80;2.17;;;;;;;-143.84;63.11;45218.53;5071893;28;20437;-68
2023/03/29 00:17:04;;;;;;;2.17;2.07;;;;;;;-143.84;63.83;45231.88;5071493;28;20451;-68
2023/03/29 00:19:35;;;;;;;3.50;2.60;;;;;;;-143.84;65.39;45191.88;5071473;28;20479;-68
2023/03/29 00:22:04;;;;;;;2.60;2.40;;;;;;;-143.84;66.48;45226.16;5071431;28;20471;-68
2023/03/29 00:24:31;;;;;;;3.00;2.70;;;;;;;-143.84;68.19;45224.25;5071257;28;20866;-68
2023/03/29 00:26:58;;;;;;;5.00;3.33;;;;;;;-143.84;70.16;45193.78;5071321;28;20487;-68
2023/03/29 00:29:26;;;;;;;3.13;2.93;;;;;;;-143.84;71.29;45214.72;5071166;28;20502;-68
2023/03/29 00:31:54;;;;;;;3.60;3.30;;;;;;;-143.84;72.67;45193.78;5071430;28;20437;-68
2023/03/29 00:34:22;;;;;;;4.50;3.43;;;;;;;-143.84;73.73;45250.91;5071327;28;20437;-74
2023/03/29 00:36:51;;;;;;;3.90;2.77;;;;;;;-143.84;74.33;45220.44;5072185;28;20602;-76
2023/03/29 00:39:20;;;;;;;3.20;3.00;;;;;;;-143.84;75.13;45195.69;5071607;28;20511;-75
2023/03/29 00:41:47;;;;;;;3.67;3.27;;;;;;;-143.84;75.05;45178.56;5071902;28;20464;-75
2023/03/29 00:44:55;;;;;;;5.50;4.00;;;;;;;-143.84;75.87;45233.78;5072317;28;20778;-75
2023/03/29 00:47:27;;;;;;;3.80;3.50;;;;;;;-143.84;76.54;45209.03;5072155;28;20531;-75
2023/03/29 00:49:56;;;;;;;4.00;3.70;;;;;;;-143.84;77.11;45188.06;5071218;28;21016;-74
2023/03/29 00:52:29;;;;;;;4.47;4.07;;;;;;;-143.84;77.54;45212.84;5071065;28;20433;-75
2023/03/29 00:55:00;;;;;;;3.50;3.20;;;;;;;-143.84;78.05;45210.94;5071261;28;20503;-75
2023/03/29 00:57:30;;;;;;;7.23;4.03;;;;;;;-143.84;78.65;45176.66;5072037;28;20501;-75
2023/03/29 00:59:59;;;;;;;3.60;3.30;;;;;;;-143.84;78.37;45201.41;5072239;28;20548;-74
2023/03/29 01:02:28;;;;;;;4.90;3.60;;;;;;;-143.84;78.26;45195.69;5071902;28;20483;-75
2023/03/29 01:05:00;;;;;;;3.63;3.37;;;;;;;-143.84;78.79;45184.25;5071770;28;20473;-75
2023/03/29 01:07:34;;;;;;;3.63;3.27;;;;;;;-143.84;78.44;45191.88;5071801;28;20441;-75
2023/03/29 01:10:09;;;;;;;3.20;3.00;;;;;;;-143.84;78.71;45165.22;5071021;28;20482;-75
2023/03/29 01:12:42;;;;;;;4.00;3.70;;;;;;;-143.84;78.09;45178.56;5071315;28;21063;-75
2023/03/29 01:15:11;;;;;;;6.10;3.60;;;;;;;-143.84;78.35;45178.56;5071522;28;20449;-75
2023/03/29 01:17:39;;;;;;;3.80;3.53;;;;;;;-143.84;78.52;45186.16;5071368;28;20432;-75
2023/03/29 01:20:13;;;;;;;4.23;3.93;;;;;;;-143.84;78.77;45189.97;5070389;28;20516;-75
2023/03/29 01:22:54;;;;;;;5.50;3.40;;;;;;;-143.84;77.49;45205.22;5070518;28;20451;-75
2023/03/29 01:25:30;;;;;;;4.03;2.67;;;;;;;-143.84;76.20;45201.41;5071099;28;20882;-75
2023/03/29 01:28:03;;;;;;;3.60;3.03;;;;;;;-143.84;76.00;45176.66;5071048;28;20444;-75
2023/03/29 01:30:33;;;;;;;3.60;3.30;;;;;;;-143.84;75.63;45199.50;5071240;28;20946;-75
2023/03/29 01:33:06;;;;;;;4.03;3.63;;;;;;;-143.84;76.00;45167.13;5071103;28;20526;-75
2023/03/29 01:35:40;;;;;;;3.17;2.93;;;;;;;-143.84;75.99;45207.13;5070646;28;20437;-75
2023/03/29 01:38:12;;;;;;;4.20;3.80;;;;;;;-143.84;75.93;45233.78;5069825;28;20498;-75
2023/03/29 01:40:39;;;;;;;3.93;3.27;;;;;;;-143.84;76.39;45212.84;5069158;28;20483;-75
2023/03/29 01:43:19;;;;;;;3.23;3.03;;;;;;;-143.84;77.23;45207.13;5070019;28;20521;-75
2023/03/29 01:45:51;;;;;;;3.77;3.30;;;;;;;-143.84;77.08;45199.50;5070812;28;20950;-75
2023/03/29 01:48:25;;;;;;;3.60;3.30;;;;;;;-143.84;77.60;45197.59;5070845;28;20491;-75
2023/03/29 01:50:55;;;;;;;4.07;3.77;;;;;;;-143.84;77.63;45170.94;5070846;28;20988;-76
2023/03/29 01:53:28;;;;;;;4.17;3.10;;;;;;;-143.84;77.95;45193.78;5070889;28;20439;-75
2023/03/29 01:55:58;;;;;;;3.97;3.67;;;;;;;-143.84;78.64;45172.84;5071110;28;20432;-75
2023/03/29 01:58:33;;;;;;;5.10;4.70;;;;;;;-143.84;78.51;45180.47;5070426;28;20440;-74
2023/03/29 02:01:04;;;;;;;6.60;4.23;;;;;;;-143.84;78.59;45195.69;5070357;28;20435;-75
2023/03/29 02:03:40;;;;;;;5.07;3.93;;;;;;;-143.84;78.77;45212.84;5070873;28;20444;-75
2023/03/29 02:06:09;;;;;;;4.10;3.70;;;;;;;-143.84;79.07;45170.94;5070599;28;20532;-75
2023/03/29 02:08:38;;;;;;;4.90;4.40;;;;;;;-143.84;79.70;45157.59;5070769;28;20502;-75
2023/03/29 02:11:06;;;;;;;10.07;7.70;;;;;;;-143.84;79.45;45203.31;5070138;28;20484;-75
2023/03/29 02:13:35;;;;;;;10.00;8.43;;;;;;;-143.84;79.47;45155.69;5070316;28;20809;-75
2023/03/29 02:16:04;;;;;;;8.60;7.27;;;;;;;-143.84;79.57;45174.75;5070067;28;20568;-75
2023/03/29 02:18:32;;;;;;;5.53;5.03;;;;;;;-143.84;79.51;45176.66;5070443;28;21143;-75
2023/03/29 02:20:59;;;;;;;4.90;4.47;;;;;;;-143.84;79.74;45159.50;5070023;28;20500;-75
2023/03/29 02:23:32;;;;;;;4.57;4.17;;;;;;;-143.84;79.61;45153.81;5069734;28;20436;-75
2023/03/29 02:26:02;;;;;;;4.30;3.60;;;;;;;-143.84;79.68;45161.41;5069709;28;20441;-74
2023/03/29 02:28:32;;;;;;;3.80;3.50;;;;;;;-143.84;79.19;45189.97;5070066;28;21036;-75
2023/03/29 02:31:05;;;;;;;4.33;3.87;;;;;;;-143.84;79.21;45197.59;5069687;28;20510;-75
2023/03/29 02:33:42;;;;;;;4.00;3.60;;;;;;;-143.84;79.29;45161.41;5070202;28;20456;-75
2023/03/29 02:36:16;;;;;;;4.30;4.00;;;;;;;-143.84;79.31;45193.78;5069897;28;20437;-75
2023/03/29 02:38:45;;;;;;;5.50;4.27;;;;;;;-143.84;78.56;45201.41;5069315;28;20467;-74
2023/03/29 02:41:12;;;;;;;4.73;3.93;;;;;;;-143.84;78.71;45184.25;5068834;28;20494;-75
2023/03/29 02:43:42;;;;;;;3.83;3.53;;;;;;;-143.84;78.51;45197.59;5069680;28;20458;-75
2023/03/29 02:46:12;;;;;;;5.10;3.83;;;;;;;-143.84;78.05;45203.31;5070215;28;20470;-75
2023/03/29 02:48:40;;;;;;;5.03;4.30;;;;;;;-143.84;77.69;45224.25;5070304;28;20436;-75
2023/03/29 02:51:14;;;;;;;9.13;4.03;;;;;;;-143.84;78.10;45214.72;5069452;28;20445;-74
2023/03/29 02:53:48;;;;;;;4.57;4.20;;;;;;;-143.84;78.14;45203.31;5069591;28;20500;-75
2023/03/29 02:56:15;;;;;;;4.57;3.97;;;;;;;-143.84;77.77;45201.41;5069725;28;20440;-78
2023/03/29 02:58:42;;;;;;;4.60;3.77;;;;;;;-143.84;77.99;45205.22;5069855;28;20483;-77
2023/03/29 03:01:12;;;;;;;4.27;3.97;;;;;;;-143.84;77.80;45191.88;5071743;28;21242;-77
2023/03/29 03:03:40;;;;;;;7.37;4.10;;;;;;;-143.84;77.49;45237.59;5076673;28;20487;-77
2023/03/29 03:06:07;;;;;;;5.40;4.13;;;;;;;-143.84;77.40;45229.97;5076158;28;21391;-77
2023/03/29 03:08:34;;;;;;;8.77;4.30;;;;;;;-143.84;77.26;45209.03;5076344;28;20438;-77
2023/03/29 03:11:01;;;;;;;4.70;4.30;;;;;;;-143.84;77.59;45201.41;5076012;28;20481;-78
2023/03/29 03:13:28;;;;;;;4.23;3.77;;;;;;;-143.84;77.81;45214.72;5076470;28;20444;-78
2023/03/29 03:15:56;;;;;;;4.50;4.10;;;;;;;-143.84;77.66;45210.94;5074913;28;20938;-79
2023/03/29 03:18:24;;;;;;;4.47;4.07;;;;;;;-143.84;77.74;45197.59;5074594;28;20458;-77
2023/03/29 03:21:00;;;;;;;7.03;4.10;;;;;;;-143.84;78.10;45216.63;5076002;28;20488;-76
2023/03/29 03:23:28;;;;;;;5.67;5.10;;;;;;;-143.84;77.94;45216.63;5076680;28;20791;-76
2023/03/29 03:25:55;;;;;;;5.20;4.33;;;;;;;-143.84;78.42;45231.88;5076144;28;20436;-77
2023/03/29 03:28:26;;;;;;;5.93;4.67;;;;;;;-143.84;78.08;45235.69;5076126;28;20472;-76
2023/03/29 03:30:53;;;;;;;3.87;3.67;;;;;;;-143.84;78.35;45199.50;5076549;28;21307;-78
2023/03/29 03:33:20;;;;;;;8.90;4.40;;;;;;;-143.84;77.86;45209.03;5076422;28;20428;-78
2023/03/29 03:35:49;;;;;;;4.83;3.90;;;;;;;-143.84;78.28;45239.50;5072575;28;20450;-78
2023/03/29 03:38:18;;;;;;;4.87;4.33;;;;;;;-143.84;78.56;45207.13;5073771;28;20452;-76
2023/03/29 03:40:52;;;;;;;13.70;4.13;;;;;;;-143.84;78.82;45207.13;5073194;28;20484;-76
2023/03/29 03:43:20;;;;;;;6.40;4.37;;;;;;;-143.84;78.63;45201.41;5072126;28;20435;-76
2023/03/29 03:45:47;;;;;;;8.60;3.67;;;;;;;-143.84;78.63;45210.94;5073464;28;20456;-76
2023/03/29 03:48:14;;;;;;;15.40;4.77;;;;;;;-143.84;78.31;45212.84;5073240;28;20456;-75
2023/03/29 03:50:41;;;;;;;5.83;4.60;;;;;;;-143.84;79.21;45201.41;5072514;28;20482;-76
2023/03/29 03:53:10;;;;;;;6.43;5.03;;;;;;;-143.84;78.65;45220.44;5074121;28;20450;-76
2023/03/29 03:55:38;;;;;;;8.17;4.37;;;;;;;-143.84;78.54;45205.22;5071200;28;20494;-78
2023/03/29 03:58:06;;;;;;;5.27;4.77;;;;;;;-143.84;78.51;45212.84;5076351;28;20519;-78
2023/03/29 04:00:34;;;;;;;7.73;4.30;;;;;;;-143.84;79.14;45228.06;5076882;28;20469;-78
2023/03/29 04:03:04;;;;;;;4.80;4.23;;;;;;;-143.84;79.21;45205.22;5076607;28;20449;-78
2023/03/29 04:05:31;;;;;;;4.57;4.27;;;;;;;-143.84;78.46;45209.03;5076224;28;20502;-78
2023/03/29 04:07:59;;;;;;;6.40;4.50;;;;;;;-143.84;78.54;45241.41;5075858;28;20463;-78
2023/03/29 04:10:27;;;;;;;7.17;5.03;;;;;;;-143.84;78.56;45195.69;5076517;28;20493;-78
2023/03/29 04:12:55;;;;;;;4.87;4.47;;;;;;;-143.84;78.51;45210.94;5073268;28;20452;-78
2023/03/29 04:15:22;;;;;;;6.97;3.93;;;;;;;-143.84;78.50;45224.25;5073268;28;20850;-78
2023/03/29 04:17:49;;;;;;;5.63;3.90;;;;;;;-143.84;78.55;45228.06;5073323;28;20453;-78
2023/03/29 04:20:17;;;;;;;4.43;4.13;;;;;;;-143.84;78.84;45216.63;5073389;28;20864;-77
2023/03/29 04:22:44;;;;;;;5.30;4.20;;;;;;;-143.84;78.31;45218.53;5073370;28;20535;-78
2023/03/29 04:25:11;;;;;;;4.87;4.37;;;;;;;-143.84;78.57;45207.13;5072673;28;20445;-77
2023/03/29 04:27:40;;;;;;;5.00;4.50;;;;;;;-143.84;78.55;45247.09;5073257;28;20508;-77
2023/03/29 04:30:09;;;;;;;4.63;3.90;;;;;;;-143.84;78.97;45220.44;5072486;28;20933;-77
2023/03/29 04:32:36;;;;;;;4.80;4.27;;;;;;;-143.84;79.39;45199.50;5071751;28;20495;-78
2023/03/29 04:35:04;;;;;;;4.70;4.30;;;;;;;-143.84;79.33;45180.47;5068436;28;20445;-72
2023/03/29 04:37:31;;;;;;;4.70;3.90;;;;;;;-143.84;80.07;45169.03;5068856;28;20966;-72
2023/03/29 04:40:00;;;;;;;5.27;4.77;;;;;;;-143.84;79.85;45210.94;5068347;28;20485;-71
2023/03/29 04:42:28;;;;;;;6.17;5.60;;;;;;;-143.84;79.96;45218.53;5061890;28;20806;-71
2023/03/29 04:44:57;;;;;;;7.30;5.60;;;;;;;-143.84;80.13;45212.84;5061417;28;20450;-71
2023/03/29 04:47:28;;;;;;;7.23;6.53;;;;;;;-143.84;79.96;45163.31;5069101;28;20465;-72
2023/03/29 04:49:56;;;;;;;8.97;5.70;;;;;;;-143.84;79.67;45212.84;5069977;28;20461;-72
2023/03/29 04:52:23;;;;;;;6.57;5.97;;;;;;;-143.84;79.87;45228.06;5069995;28;20449;-72
2023/03/29 04:54:50;;;;;;;7.20;5.73;;;;;;;-143.84;79.18;45184.25;5069089;28;20449;-72
2023/03/29 04:57:17;;;;;;;6.73;6.03;;;;;;;-143.84;79.14;45178.56;5068467;28;20533;-72
2023/03/29 04:59:44;;;;;;;6.73;6.13;;;;;;;-143.84;78.96;45205.22;5068564;28;20497;-72
2023/03/29 05:02:13;;;;;;;11.13;6.57;;;;;;;-143.84;78.62;45178.56;5065380;28;20826;-72
2023/03/29 05:04:40;;;;;;;6.40;5.57;;;;;;;-143.84;78.48;45203.31;5067453;28;20456;-72
2023/03/29 05:07:07;;;;;;;11.73;6.17;;;;;;;-143.84;78.06;45224.25;5067682;28;20820;-72
2023/03/29 05:09:35;;;;;;;6.60;6.00;;;;;;;-143.84;76.32;45247.09;5067262;28;20998;-72
2023/03/29 05:12:02;;;;;;;8.23;6.13;;;;;;;-143.84;75.12;45209.03;5068161;28;20454;-72
2023/03/29 05:14:29;;;;;;;5.13;4.63;;;;;;;-143.84;74.75;45210.94;5068578;28;20461;-72
2023/03/29 05:16:57;;;;;;;5.83;5.10;;;;;;;-143.84;73.49;45199.50;5069280;28;20452;-71
2023/03/29 05:19:26;;;;;;;8.17;4.70;;;;;;;-143.84;73.47;45220.44;5069639;28;20503;-72
2023/03/29 05:21:54;;;;;;;6.13;5.03;;;;;;;-143.84;72.30;45205.22;5069492;28;20488;-72
2023/03/29 05:24:21;;;;;;;4.10;3.70;;;;;;;-143.84;71.63;45205.22;5068791;28;20449;-72
2023/03/29 05:26:50;;;;;;;5.67;4.87;;;;;;;-143.84;70.50;45226.16;5069298;28;20444;-71
2023/03/29 05:29:17;;;;;;;4.50;4.17;;;;;;;-143.84;70.34;45189.97;5069217;28;20895;-72
2023/03/29 05:31:45;;;;;;;4.47;4.10;;;;;;;-143.84;68.72;45214.72;5069121;28;20444;-72
2023/03/29 05:34:12;;;;;;;5.17;4.00;;;;;;;-143.84;66.82;45207.13;5069123;28;20540;-72
2023/03/29 05:36:41;;;;;;;5.20;4.30;;;;;;;-143.84;66.48;45207.13;5067140;28;20449;-72
2023/03/29 05:39:09;;;;;;;5.50;4.40;;;;;;;-143.84;66.26;45222.34;5067444;28;20457;-72
2023/03/29 05:41:38;;;;;;;9.60;6.80;;;;;;;-143.84;66.10;45229.97;5069279;28;20487;-72
2023/03/29 05:44:06;;;;;;;6.87;6.27;;;;;;;-143.84;65.22;45186.16;5068984;28;20459;-72
2023/03/29 05:46:33;;;;;;;6.63;6.10;;;;;;;-143.84;64.73;45195.69;5068559;28;20449;-72
2023/03/29 05:49:00;;;;;;;8.83;6.17;;;;;;;-143.84;65.45;45195.69;5068907;28;21655;-72
2023/03/29 05:51:27;;;;;;;8.40;5.50;;;;;;;-143.84;66.00;45222.34;5069067;28;20452;-72
2023/03/29 05:53:56;;;;;;;9.83;5.73;;;;;;;-143.84;66.44;45199.50;5068854;28;21106;-72
2023/03/29 05:56:23;;;;;;;8.80;6.20;;;;;;;-143.84;66.92;45218.53;5068394;28;20461;-72
2023/03/29 05:58:53;;;;;;;5.30;4.83;;;;;;;-143.84;68.06;45216.63;5068274;28;20962;-72
2023/03/29 06:01:21;;;;;;;7.90;5.10;;;;;;;-143.84;68.30;45220.44;5068255;28;21071;-72
2023/03/29 06:03:48;;;;;;;12.03;5.50;;;;;;;-143.84;68.71;45224.25;5067899;28;20804;-72
2023/03/29 06:06:16;;;;;;;8.63;4.83;;;;;;;-143.84;69.29;45205.22;5067745;28;21089;-72
2023/03/29 06:08:45;;;;;;;4.80;4.40;;;;;;;-143.84;66.02;45203.31;5067685;28;20535;-72
2023/03/29 06:11:14;;;;;;;3.73;3.43;;;;;;;-143.84;66.01;45222.34;5067592;28;20850;-72
2023/03/29 06:13:42;;;;;;;6.13;4.43;;;;;;;-143.84;66.62;45205.22;5068320;28;20980;-72
2023/03/29 06:16:11;;;;;;;5.00;3.63;;;;;;;-143.84;67.71;45245.19;5067760;28;21210;-71
2023/03/29 06:18:39;;;;;;;4.40;4.00;;;;;;;-143.84;68.31;45209.03;5067893;28;20461;-72
2023/03/29 06:21:08;;;;;;;8.23;5.20;;;;;;;-143.84;68.27;45228.06;5063677;28;21008;-72
2023/03/29 06:23:35;;;;;;;5.27;4.77;;;;;;;-143.84;68.46;45207.13;5068102;28;20453;-72
2023/03/29 06:26:02;;;;;;;4.87;4.37;;;;;;;-143.84;69.23;45228.06;5068275;28;21117;-72
2023/03/29 06:28:30;;;;;;;5.03;3.83;;;;;;;-143.84;69.01;45224.25;5068129;28;20974;-72
2023/03/29 06:31:00;;;;;;;7.77;4.70;;;;;;;-143.84;68.78;45226.16;5068125;28;20460;-71
2023/03/29 06:33:29;;;;;;;5.63;4.10;;;;;;;-143.84;68.01;45216.63;5067932;28;20457;-72
2023/03/29 06:35:56;;;;;;;4.33;4.00;;;;;;;-143.84;67.58;45199.50;5064483;28;20442;-72
2023/03/29 06:38:25;;;;;;;4.30;3.70;;;;;;;-143.84;68.04;45250.91;5068237;28;20441;-72
2023/03/29 06:40:52;;;;;;;4.50;4.10;;;;;;;-143.84;67.42;45220.44;5067603;28;20486;-72
2023/03/29 06:43:19;;;;;;;6.87;3.90;;;;;;;-143.84;67.11;45237.59;5067791;28;20453;-72
2023/03/29 06:45:48;;;;;;;7.23;4.30;;;;;;;-143.84;65.35;45205.22;5067882;28;20525;-72
2023/03/29 06:48:15;;;;;;;5.57;5.00;;;;;;;-143.84;64.57;45212.84;5068064;28;20460;-72
2023/03/29 06:50:42;;;;;;;6.63;4.00;;;;;;;-143.84;64.82;45233.78;5067899;28;20448;-71
2023/03/29 06:53:10;;;;;;;4.20;3.90;;;;;;;-143.84;64.08;45228.06;5067959;28;21006;-72
2023/03/29 06:55:37;;;;;;;4.37;4.07;;;;;;;-143.84;62.50;45212.84;5066310;28;20448;-72
2023/03/29 06:58:04;;;;;;;4.30;4.00;;;;;;;-143.84;60.19;45197.59;5068015;28;20820;-72
2023/03/29 07:00:34;;;;;;;4.63;3.53;;;;;;;-143.84;60.24;45207.13;5067882;28;20484;-72
2023/03/29 07:03:06;;;;;;;3.93;3.53;;;;;;;-143.84;60.52;45209.03;5067903;28;21534;-69
2023/03/29 07:05:39;;;;;;;7.27;3.80;;;;;;;-143.84;57.17;45228.06;5067644;28;20449;-69
2023/03/29 07:08:12;;;;;;;5.80;3.43;;;;;;;-143.84;55.20;45191.88;5067812;28;20535;-69
2023/03/29 07:10:42;;;;;;;3.53;3.33;;;;;;;-143.84;55.33;45212.84;5066000;28;20492;-69
2023/03/29 07:13:11;;;;;;;4.10;3.80;;;;;;;-143.84;55.17;45201.41;5065924;28;20453;-70
2023/03/29 07:15:39;;;;;;;4.03;3.73;;;;;;;-143.84;52.43;45197.59;5065685;28;20532;-69
2023/03/29 07:18:09;;;;;;;6.40;4.33;;;;;;;-143.84;52.18;45169.03;5067916;28;21225;-70
2023/03/29 07:20:37;;;;;;;5.97;3.83;;;;;;;-143.84;51.53;45165.22;5067571;28;21102;-70
2023/03/29 07:23:04;;;;;;;6.10;3.83;;;;;;;-143.84;50.19;45172.84;5067743;28;20527;-70
2023/03/29 07:25:32;;;;;;;4.50;4.10;;;;;;;-143.84;50.91;45189.97;5067719;28;20441;-70
2023/03/29 07:28:00;;;;;;;3.70;3.40;;;;;;;-143.84;48.85;45189.97;5066560;28;20449;-70
2023/03/29 07:30:29;;;;;;;3.40;3.20;;;;;;;-143.84;48.89;45197.59;5067737;28;20441;-70
2023/03/29 07:32:57;;;;;;;4.13;3.50;;;;;;;-143.84;48.73;45197.59;5067719;28;20524;-70
2023/03/29 07:35:29;;;;;;;5.87;5.37;;;;;;;-143.84;49.13;45180.47;5067373;28;20878;-70
2023/03/29 07:37:57;;;;;;;5.73;3.70;;;;;;;-143.84;49.33;45184.25;5067495;28;20496;-70
2023/03/29 07:40:24;;;;;;;4.37;3.90;;;;;;;-143.84;48.41;45188.06;5067647;28;20473;-70
2023/03/29 07:42:53;;;;;;;3.83;3.50;;;;;;;-143.84;48.01;45203.31;5067589;28;20474;-70
2023/03/29 07:45:22;;;;;;;4.97;4.57;;;;;;;-143.84;48.08;45199.50;5067425;28;20456;-70
2023/03/29 07:47:50;;;;;;;7.30;3.40;;;;;;;-143.84;49.96;45169.03;5069324;28;20468;-70
2023/03/29 07:50:17;;;;;;;4.57;3.47;;;;;;;-143.84;48.54;45186.16;5071638;28;20448;-70
2023/03/29 07:52:47;;;;;;;3.73;3.43;;;;;;;-143.84;48.20;45170.94;5071379;28;20513;-70
2023/03/29 07:55:14;;;;;;;4.97;3.93;;;;;;;-143.84;46.89;45182.38;5070780;28;20455;-70
2023/03/29 07:57:43;;;;;;;4.70;4.30;;;;;;;-143.84;47.96;45178.56;5070664;28;20450;-70
2023/03/29 08:00:14;;;;;;;9.63;3.97;;;;;;;-143.84;48.30;45165.22;5066237;28;20447;-70
2023/03/29 08:02:43;;;;;;;3.70;3.40;;;;;;;-143.84;47.06;45186.16;5066696;28;21022;-70
2023/03/29 08:05:11;;;;;;;3.80;3.40;;;;;;;-143.84;44.16;45178.56;5066778;28;20439;-70
2023/03/29 08:07:40;;;;;;;3.33;3.00;;;;;;;-143.84;42.65;45172.84;5070173;28;20460;-70
2023/03/29 08:10:12;;;;;;;4.20;3.30;;;;;;;-143.84;42.77;45178.56;5070021;28;20499;-70
2023/03/29 08:12:41;;;;;;;3.50;3.20;;;;;;;-143.84;43.31;45189.97;5070631;28;20471;-70
2023/03/29 08:15:09;;;;;;;3.83;3.50;;;;;;;-143.84;43.96;45170.94;5069692;28;20580;-70
2023/03/29 08:17:37;;;;;;;3.50;2.90;;;;;;;-143.84;43.59;45157.59;5070094;28;20491;-70
2023/03/29 08:20:06;;;;;;;5.30;3.23;;;;;;;-143.84;43.96;45159.50;5070506;28;20451;-70
2023/03/29 08:22:34;;;;;;;4.23;3.47;;;;;;;-143.84;43.84;45189.97;5070848;28;20561;-70
2023/03/29 08:25:01;;;;;;;3.67;3.03;;;;;;;-143.84;44.24;45151.91;5070425;28;20531;-70
2023/03/29 08:27:31;;;;;;;5.10;3.43;;;;;;;-143.84;42.70;45165.22;5070599;28;20540;-70
2023/03/29 08:29:58;;;;;;;3.13;2.93;;;;;;;-143.84;42.50;45195.69;5070399;28;20466;-70
2023/03/29 08:32:25;;;;;;;3.77;3.47;;;;;;;-143.84;41.99;45176.66;5070833;28;20452;-70
2023/03/29 08:34:52;;;;;;;3.43;3.13;;;;;;;-143.84;42.13;45159.50;5070449;28;20459;-69
2023/03/29 08:37:19;;;;;;;4.20;3.73;;;;;;;-143.84;41.45;45161.41;5070208;28;20513;-70
2023/03/29 08:39:47;;;;;;;4.07;3.67;;;;;;;-143.84;41.89;45229.97;5070490;28;20498;-70
2023/03/29 08:42:41;;;;;;;5.47;3.83;;;;;;;-143.84;41.98;45184.25;5070274;28;20878;-70
2023/03/29 08:45:19;;;;;;;7.63;4.70;;;;;;;-143.84;41.45;45140.47;5067925;28;20813;-70
2023/03/29 08:47:55;;;;;;;5.93;3.37;;;;;;;-143.84;40.74;45174.75;5070379;28;20452;-70
2023/03/29 08:50:32;;;;;;;3.77;3.47;;;;;;;-143.84;41.41;45203.31;5069933;28;20459;-70
2023/03/29 08:53:02;;;;;;;3.33;3.13;;;;;;;-143.84;41.96;45174.75;5068998;28;20821;-70
2023/03/29 08:55:33;;;;;;;2.93;2.63;;;;;;;-143.84;42.88;45178.56;5068984;28;20462;-70
2023/03/29 08:58:07;;;;;;;3.47;3.17;;;;;;;-143.84;42.09;45144.28;5068949;28;21114;-70
2023/03/29 09:00:39;;;;;;;3.90;2.80;;;;;;;-143.84;41.78;45167.13;5068936;28;20522;-70
2023/03/29 09:03:11;;;;;;;3.30;3.07;;;;;;;-143.84;39.85;45167.13;5069605;28;20491;-70
2023/03/29 09:05:45;;;;;;;2.90;2.60;;;;;;;-143.84;38.85;45127.13;5069583;28;20460;-70
2023/03/29 09:08:16;;;;;;;3.93;3.50;;;;;;;-143.84;38.72;45178.56;5066848;28;20452;-70
2023/03/29 09:11:00;;;;;;;4.00;3.27;;;;;;;-143.84;38.91;45176.66;5066922;28;20520;-70
2023/03/29 09:13:39;;;;;;;3.27;2.97;;;;;;;-143.84;39.88;45150.00;5068679;28;20791;-70
2023/03/29 09:16:17;;;;;;;3.83;3.03;;;;;;;-143.84;39.31;45163.31;5069605;28;20487;-70
2023/03/29 09:18:58;;;;;;;3.27;3.03;;;;;;;-143.84;40.20;45159.50;5066544;28;20453;-70
2023/03/29 09:21:35;;;;;;;3.47;3.27;;;;;;;-143.84;39.78;45178.56;5069203;28;20855;-70
2023/03/29 09:24:18;;;;;;;3.63;3.40;;;;;;;-143.84;40.14;45167.13;5069578;28;20452;-70
2023/03/29 09:26:48;;;;;;;3.57;3.37;;;;;;;-143.84;40.07;45178.56;5069069;28;20980;-70
2023/03/29 09:29:36;;;;;;;3.30;3.00;;;;;;;-143.84;40.66;45155.69;5069607;28;20984;-70
2023/03/29 09:32:13;;;;;;;4.30;4.00;;;;;;;-143.84;39.22;45148.09;5069316;28;20460;-70
2023/03/29 09:34:45;;;;;;;5.27;3.93;;;;;;;-143.84;38.75;45172.84;5069368;28;20447;-70
2023/03/29 09:37:20;;;;;;;3.47;3.17;;;;;;;-143.84;39.16;45201.41;5062661;28;20834;-70
2023/03/29 09:39:48;;;;;;;5.30;2.73;;;;;;;-143.84;38.14;45142.38;5069166;28;20459;-70
2023/03/29 09:42:18;;;;;;;3.87;3.57;;;;;;;-143.84;37.94;45169.03;5065668;28;20477;-70
2023/03/29 09:44:51;;;;;;;4.63;4.13;;;;;;;-143.84;37.69;45161.41;5066129;28;21346;-70
2023/03/29 09:47:24;;;;;;;3.03;2.83;;;;;;;-143.84;38.63;45176.66;5066488;28;20453;-70
2023/03/29 09:49:58;;;;;;;3.73;3.10;;;;;;;-143.84;39.31;45178.56;5066587;28;20454;-70
2023/03/29 09:52:25;;;;;;;8.83;4.00;;;;;;;-143.84;40.61;45155.69;5068858;28;20997;-70
2023/03/29 09:54:53;;;;;;;3.90;3.53;;;;;;;-143.84;41.12;45170.94;5068783;28;20868;-70
2023/03/29 09:57:20;;;;;;;4.60;4.20;;;;;;;-143.84;43.51;45150.00;5068686;28;21043;-70
2023/03/29 09:59:51;;;;;;;4.30;3.90;;;;;;;-143.84;43.75;45144.28;5068253;28;20456;-70
2023/03/29 10:02:21;;;;;;;3.77;3.57;;;;;;;-143.84;42.80;45146.19;5068002;28;20492;-70
2023/03/29 10:04:57;;;;;;;4.57;4.17;;;;;;;-143.84;42.69;45155.69;5068385;28;20547;-70
2023/03/29 10:07:34;;;;;;;3.93;3.50;;;;;;;-143.84;42.66;45197.59;5066418;28;20534;-70
2023/03/29 10:10:01;;;;;;;4.00;3.70;;;;;;;-143.84;42.21;45170.94;5066679;28;20566;-70
2023/03/29 10:12:28;;;;;;;5.13;4.60;;;;;;;-143.84;41.08;45180.47;5067591;28;20444;-70
2023/03/29 10:15:00;;;;;;;3.87;3.57;;;;;;;-143.84;41.95;45167.13;5065687;28;20447;-70
2023/03/29 10:17:32;;;;;;;3.77;3.47;;;;;;;-143.84;41.80;45186.16;5066067;28;21016;-70
2023/03/29 10:20:02;;;;;;;4.40;4.00;;;;;;;-143.84;40.58;45165.22;5066292;28;20543;-70
2023/03/29 10:22:36;;;;;;;3.67;3.40;;;;;;;-143.84;39.30;45189.97;5066486;28;20828;-70
2023/03/29 10:25:04;;;;;;;3.90;3.60;;;;;;;-143.84;40.40;45195.69;5066499;28;20459;-70
2023/03/29 10:27:33;;;;;;;4.17;3.87;;;;;;;-143.84;41.91;45188.06;5067807;28;20521;-70
2023/03/29 10:30:11;;;;;;;3.97;3.67;;;;;;;-143.84;42.60;45167.13;5066946;28;20551;-70
2023/03/29 10:32:39;;;;;;;4.10;3.77;;;;;;;-143.84;41.40;45150.00;5067652;28;20464;-70
2023/03/29 10:35:10;;;;;;;3.40;3.10;;;;;;;-143.84;40.72;45167.13;5068195;28;20453;-70
2023/03/29 10:37:41;;;;;;;2.90;2.70;;;;;;;-143.84;38.95;45170.94;5067915;28;20535;-70
2023/03/29 10:40:25;;;;;;;3.20;2.90;;;;;;;-143.84;39.36;45184.25;5067948;28;20945;-70
2023/03/29 10:42:53;;;;;;;3.90;3.33;;;;;;;-143.84;39.22;45159.50;5066303;28;21090;-70
2023/03/29 10:45:26;;;;;;;3.00;2.80;;;;;;;-143.84;38.61;45132.84;5067716;28;20511;-70
2023/03/29 10:47:55;;;;;;;3.80;3.50;;;;;;;-143.84;39.04;45170.94;5067942;28;20840;-70
2023/03/29 10:50:23;;;;;;;3.77;3.47;;;;;;;-143.84;39.75;45151.91;5067947;28;20482;-70
2023/03/29 10:52:51;;;;;;;3.77;3.47;;;;;;;-143.84;39.95;45134.75;5067811;28;20511;-70
2023/03/29 10:55:18;;;;;;;6.97;3.73;;;;;;;-143.84;40.89;45161.41;5067405;28;20452;-70
2023/03/29 10:57:59;;;;;;;3.87;3.20;;;;;;;-143.84;40.34;45172.84;5067839;28;20812;-71
2023/03/29 11:00:34;;;;;;;2.80;2.60;;;;;;;-143.84;40.43;45174.75;5067537;28;20460;-70
2023/03/29 11:03:36;;;;;;;5.07;2.90;;;;;;;-143.84;39.97;45138.56;5067777;28;20498;-70
2023/03/29 11:06:15;;;;;;;3.90;3.50;;;;;;;-143.84;41.27;45169.03;5066577;28;21018;-70
2023/03/29 11:09:05;;;;;;;5.07;2.80;;;;;;;-143.84;36.52;45163.31;5063835;28;21033;-70
2023/03/29 11:11:46;;;;;;;2.77;2.60;;;;;;;-143.84;37.35;45188.06;5062024;28;20492;-70
2023/03/29 11:14:23;;;;;;;3.07;2.87;;;;;;;-143.84;36.64;45176.66;5063350;28;20455;-71
2023/03/29 11:17:06;;;;;;;2.83;2.60;;;;;;;-143.84;37.64;45148.09;5066444;28;20804;-71
2023/03/29 11:19:49;;;;;;;3.63;2.50;;;;;;;-143.84;36.88;45151.91;5067593;28;20787;-71
2023/03/29 11:22:24;;;;;;;2.60;2.40;;;;;;;-143.84;36.76;45144.28;5065202;28;20877;-71
2023/03/29 11:25:06;;;;;;;3.00;2.80;;;;;;;-143.84;37.24;45150.00;5069131;28;20532;-71
2023/03/29 11:27:40;;;;;;;4.73;1.90;;;;;;;-143.84;36.87;45170.94;5070516;28;20973;-70
2023/03/29 11:30:13;;;;;;;2.60;2.30;;;;;;;-143.84;37.50;45170.94;5071799;28;20448;-70
2023/03/29 11:32:50;;;;;;;2.20;2.00;;;;;;;-143.84;37.41;45189.97;5071625;28;20525;-70